< Typhoon 196230 1963 Season Typhoon 196302 >
Typhoon 196301 (OLIVE)
General InformationTrack Information on Google Maps || Disaster Info.ResourceGoogle EarthGE AnimationAtom FeedGeoJSON
Detalied Best Track (Time Zone = UTC)
Year Month Day Hour Lat. Long. Pressure (hPa) Wind (kt) Class Image Chart
1963 4 26 00 8.0 144.0 1002 0 2 -- Chart
1963 4 26 06 8.4 143.6 1000 0 2 -- Chart
1963 4 26 12 8.8 143.5 1000 0 2 -- Chart
1963 4 26 18 9.4 143.4 995 0 9 -- Chart
1963 4 27 00 9.8 143.5 990 0 9 -- Chart
1963 4 27 06 10.1 143.7 970 0 9 -- Chart
1963 4 27 12 10.4 143.8 960 0 9 -- Chart
1963 4 27 18 10.7 143.6 950 0 9 -- Chart
1963 4 28 00 11.0 143.6 940 0 9 -- Chart
1963 4 28 06 11.5 143.7 935 0 9 -- Chart
1963 4 28 12 12.1 143.9 930 0 9 -- Chart
1963 4 28 18 12.6 143.9 925 0 9 -- Chart
1963 4 29 00 13.1 143.9 920 0 9 -- Chart
1963 4 29 06 13.6 144.3 930 0 9 -- Chart
1963 4 29 12 14.3 144.5 940 0 9 -- Chart
1963 4 29 18 14.7 145.0 950 0 9 -- Chart
1963 4 30 00 15.2 145.5 950 0 9 -- Chart
1963 4 30 06 15.8 146.1 950 0 9 -- Chart
1963 4 30 12 16.5 146.5 950 0 9 -- Chart
1963 4 30 18 17.1 147.2 950 0 9 -- Chart
1963 5 1 00 17.8 148.2 956 0 9 -- Chart
1963 5 1 06 18.5 148.5 960 0 9 -- Chart
1963 5 1 12 19.1 149.2 965 0 9 -- Chart
1963 5 1 18 19.9 149.9 970 0 9 -- Chart
1963 5 2 00 20.7 150.2 975 0 9 -- Chart
1963 5 2 06 21.4 151.3 970 0 9 -- Chart
1963 5 2 12 22.5 152.2 965 0 9 -- Chart
1963 5 2 18 23.3 153.2 965 0 9 -- Chart
1963 5 3 00 24.3 154.5 965 0 9 -- Chart
1963 5 3 06 25.4 155.6 970 0 9 -- Chart
1963 5 3 12 25.9 157.1 970 0 9 -- Chart
1963 5 3 18 26.3 158.6 975 0 9 -- Chart
1963 5 4 00 26.5 160.5 980 0 9 -- Chart
1963 5 4 06 26.7 162.4 980 0 9 -- Chart
1963 5 4 12 27.5 164.1 980 0 9 -- Chart
1963 5 4 18 28.3 165.6 980 0 9 -- Chart
1963 5 5 00 29.3 167.9 990 0 9 -- Chart
1963 5 5 06 29.9 169.2 990 0 9 -- Chart
1963 5 5 12 31.1 171.5 990 0 9 -- Chart
1963 5 5 18 32.3 173.3 1000 0 6 -- Chart
1963 5 6 00 33.0 174.5 1004 0 6 -- Chart
1963 5 6 06 33.8 175.6 1004 0 6 -- Chart
1963 5 6 12 34.6 176.7 1004 0 6 -- Chart
1963 5 6 18 35.3 177.7 1004 0 6 -- Chart
1963 5 7 00 36.0 178.0 1006 0 6 -- Chart
1963 5 7 06 36.5 177.8 1006 0 6 -- Chart
1963 5 7 12 37.2 177.4 1008 0 6 -- Chart
1963 5 7 18 37.9 177.2 1010 0 6 -- Chart
1963 5 8 00 38.8 177.0 1010 0 6 -- Chart
1963 5 8 06 40.0 176.9 1010 0 6 -- Chart
1963 5 8 12 43.0 177.1 1006 0 6 -- Chart
1963 5 8 18 46.0 177.0 1002 0 6 -- Chart
1963 5 9 00 48.8 178.8 998 0 6 -- Chart
1963 5 9 06 50.0 184.0 996 0 6 -- Chart
Japan Meteorological Agency Best Track Data | Correction Date : 1989-06-01
< Typhoon 196230 1963 Season Typhoon 196302 >

Help